sensor_id;sensor_type;location;lat;lon;timestamp;pressure;altitude;pressure_sealevel;temperature
23208;BMP180;11773;52.570;13.052;2023-03-03T00:00:12;102017.00;;;6.70
23208;BMP180;11773;52.570;13.052;2023-03-03T00:02:42;102024.00;;;6.70
23208;BMP180;11773;52.570;13.052;2023-03-03T00:05:11;102030.00;;;6.70
23208;BMP180;11773;52.570;13.052;2023-03-03T00:07:45;102035.00;;;6.60
23208;BMP180;11773;52.570;13.052;2023-03-03T00:10:16;102033.00;;;6.60
23208;BMP180;11773;52.570;13.052;2023-03-03T00:12:48;102029.00;;;6.60
23208;BMP180;11773;52.570;13.052;2023-03-03T00:15:24;102027.00;;;6.60
23208;BMP180;11773;52.570;13.052;2023-03-03T00:17:54;102040.00;;;6.60
23208;BMP180;11773;52.570;13.052;2023-03-03T00:20:29;102024.00;;;6.60
23208;BMP180;11773;52.570;13.052;2023-03-03T00:23:23;102021.00;;;6.60
23208;BMP180;11773;52.570;13.052;2023-03-03T00:25:53;102012.00;;;6.60
23208;BMP180;11773;52.570;13.052;2023-03-03T00:28:35;102011.00;;;6.50
23208;BMP180;11773;52.570;13.052;2023-03-03T00:31:10;102007.00;;;6.50
23208;BMP180;11773;52.570;13.052;2023-03-03T00:33:41;102018.00;;;6.60
23208;BMP180;11773;52.570;13.052;2023-03-03T00:36:35;102011.00;;;6.60
23208;BMP180;11773;52.570;13.052;2023-03-03T00:39:30;102018.00;;;6.60
23208;BMP180;11773;52.570;13.052;2023-03-03T00:42:00;102013.00;;;6.50
23208;BMP180;11773;52.570;13.052;2023-03-03T00:44:41;102011.00;;;6.50
23208;BMP180;11773;52.570;13.052;2023-03-03T00:50:24;102017.00;;;6.50
23208;BMP180;11773;52.570;13.052;2023-03-03T00:53:11;102006.00;;;6.50
23208;BMP180;11773;52.570;13.052;2023-03-03T00:55:41;102006.00;;;6.40
23208;BMP180;11773;52.570;13.052;2023-03-03T00:58:11;102010.00;;;6.40
23208;BMP180;11773;52.570;13.052;2023-03-03T01:00:42;102005.00;;;6.40
23208;BMP180;11773;52.570;13.052;2023-03-03T01:03:15;101992.00;;;6.40
23208;BMP180;11773;52.570;13.052;2023-03-03T01:05:45;101993.00;;;6.40
23208;BMP180;11773;52.570;13.052;2023-03-03T01:08:15;101995.00;;;6.40
23208;BMP180;11773;52.570;13.052;2023-03-03T01:10:49;102004.00;;;6.40
23208;BMP180;11773;52.570;13.052;2023-03-03T01:13:33;101997.00;;;6.40
23208;BMP180;11773;52.570;13.052;2023-03-03T01:16:00;101997.00;;;6.40
23208;BMP180;11773;52.570;13.052;2023-03-03T01:18:31;101992.00;;;6.40
23208;BMP180;11773;52.570;13.052;2023-03-03T01:21:00;102001.00;;;6.40
23208;BMP180;11773;52.570;13.052;2023-03-03T01:23:30;101988.00;;;6.40
23208;BMP180;11773;52.570;13.052;2023-03-03T01:25:59;101996.00;;;6.40
23208;BMP180;11773;52.570;13.052;2023-03-03T01:28:29;101982.00;;;6.50
23208;BMP180;11773;52.570;13.052;2023-03-03T01:31:04;101973.00;;;6.50
23208;BMP180;11773;52.570;13.052;2023-03-03T01:33:35;101970.00;;;6.50
23208;BMP180;11773;52.570;13.052;2023-03-03T01:36:05;101981.00;;;6.50
23208;BMP180;11773;52.570;13.052;2023-03-03T01:38:38;101967.00;;;6.50
23208;BMP180;11773;52.570;13.052;2023-03-03T01:41:08;101967.00;;;6.50
23208;BMP180;11773;52.570;13.052;2023-03-03T01:43:44;101963.00;;;6.50
23208;BMP180;11773;52.570;13.052;2023-03-03T01:46:51;101962.00;;;6.50
23208;BMP180;11773;52.570;13.052;2023-03-03T01:49:33;101954.00;;;6.50
23208;BMP180;11773;52.570;13.052;2023-03-03T01:52:24;101949.00;;;6.50
23208;BMP180;11773;52.570;13.052;2023-03-03T01:54:51;101943.00;;;6.40
23208;BMP180;11773;52.570;13.052;2023-03-03T01:57:28;101946.00;;;6.40
23208;BMP180;11773;52.570;13.052;2023-03-03T02:00:00;101950.00;;;6.40
23208;BMP180;11773;52.570;13.052;2023-03-03T02:02:32;101942.00;;;6.40
23208;BMP180;11773;52.570;13.052;2023-03-03T02:05:03;101962.00;;;6.50
23208;BMP180;11773;52.570;13.052;2023-03-03T02:07:33;101948.00;;;6.50
23208;BMP180;11773;52.570;13.052;2023-03-03T02:10:16;101963.00;;;6.50
23208;BMP180;11773;52.570;13.052;2023-03-03T02:12:56;101962.00;;;6.40
23208;BMP180;11773;52.570;13.052;2023-03-03T02:15:24;101946.00;;;6.40
23208;BMP180;11773;52.570;13.052;2023-03-03T02:17:58;101968.00;;;6.40
23208;BMP180;11773;52.570;13.052;2023-03-03T02:26:17;101966.00;;;6.40
23208;BMP180;11773;52.570;13.052;2023-03-03T02:28:48;101978.00;;;6.40
23208;BMP180;11773;52.570;13.052;2023-03-03T02:31:21;101967.00;;;6.40
23208;BMP180;11773;52.570;13.052;2023-03-03T02:37:22;101964.00;;;6.30
23208;BMP180;11773;52.570;13.052;2023-03-03T02:39:51;101960.00;;;6.40
23208;BMP180;11773;52.570;13.052;2023-03-03T02:42:27;101963.00;;;6.40
23208;BMP180;11773;52.570;13.052;2023-03-03T02:44:57;101968.00;;;6.40
23208;BMP180;11773;52.570;13.052;2023-03-03T02:47:27;101967.00;;;6.40
23208;BMP180;11773;52.570;13.052;2023-03-03T02:49:56;101963.00;;;6.40
23208;BMP180;11773;52.570;13.052;2023-03-03T02:52:26;101951.00;;;6.40
23208;BMP180;11773;52.570;13.052;2023-03-03T02:54:55;101961.00;;;6.40
23208;BMP180;11773;52.570;13.052;2023-03-03T02:57:25;101977.00;;;6.40
23208;BMP180;11773;52.570;13.052;2023-03-03T02:59:54;101967.00;;;6.40
23208;BMP180;11773;52.570;13.052;2023-03-03T03:02:24;101963.00;;;6.40
23208;BMP180;11773;52.570;13.052;2023-03-03T03:04:54;101969.00;;;6.40
23208;BMP180;11773;52.570;13.052;2023-03-03T03:07:24;101977.00;;;6.40
23208;BMP180;11773;52.570;13.052;2023-03-03T03:09:53;101964.00;;;6.40
23208;BMP180;11773;52.570;13.052;2023-03-03T03:12:23;101971.00;;;6.50
23208;BMP180;11773;52.570;13.052;2023-03-03T03:14:52;101972.00;;;6.50
23208;BMP180;11773;52.570;13.052;2023-03-03T03:17:22;101996.00;;;6.50
23208;BMP180;11773;52.570;13.052;2023-03-03T03:19:51;101973.00;;;6.50
23208;BMP180;11773;52.570;13.052;2023-03-03T03:22:21;101989.00;;;6.50
23208;BMP180;11773;52.570;13.052;2023-03-03T03:24:50;101999.00;;;6.50
23208;BMP180;11773;52.570;13.052;2023-03-03T03:27:20;101995.00;;;6.50
23208;BMP180;11773;52.570;13.052;2023-03-03T03:29:50;101990.00;;;6.50
23208;BMP180;11773;52.570;13.052;2023-03-03T03:32:20;102002.00;;;6.50
23208;BMP180;11773;52.570;13.052;2023-03-03T03:34:49;101989.00;;;6.50
23208;BMP180;11773;52.570;13.052;2023-03-03T03:37:19;101999.00;;;6.50
23208;BMP180;11773;52.570;13.052;2023-03-03T03:39:48;101996.00;;;6.50
23208;BMP180;11773;52.570;13.052;2023-03-03T03:42:18;101979.00;;;6.50
23208;BMP180;11773;52.570;13.052;2023-03-03T03:44:47;101990.00;;;6.60
23208;BMP180;11773;52.570;13.052;2023-03-03T03:47:18;101992.00;;;6.50
23208;BMP180;11773;52.570;13.052;2023-03-03T03:49:47;101971.00;;;6.50
23208;BMP180;11773;52.570;13.052;2023-03-03T03:52:17;101985.00;;;6.50
23208;BMP180;11773;52.570;13.052;2023-03-03T03:54:46;101972.00;;;6.50
23208;BMP180;11773;52.570;13.052;2023-03-03T03:57:16;101980.00;;;6.50
23208;BMP180;11773;52.570;13.052;2023-03-03T03:59:45;101982.00;;;6.50
23208;BMP180;11773;52.570;13.052;2023-03-03T04:02:15;101976.00;;;6.50
23208;BMP180;11773;52.570;13.052;2023-03-03T04:04:44;101986.00;;;6.50
23208;BMP180;11773;52.570;13.052;2023-03-03T04:07:14;101968.00;;;6.50
23208;BMP180;11773;52.570;13.052;2023-03-03T04:09:43;101962.00;;;6.50
23208;BMP180;11773;52.570;13.052;2023-03-03T04:12:13;101961.00;;;6.50
23208;BMP180;11773;52.570;13.052;2023-03-03T04:14:42;101959.00;;;6.50
23208;BMP180;11773;52.570;13.052;2023-03-03T04:17:22;101957.00;;;6.50
23208;BMP180;11773;52.570;13.052;2023-03-03T04:19:55;101951.00;;;6.50
23208;BMP180;11773;52.570;13.052;2023-03-03T04:22:24;101967.00;;;6.50
23208;BMP180;11773;52.570;13.052;2023-03-03T04:24:54;101948.00;;;6.50
23208;BMP180;11773;52.570;13.052;2023-03-03T04:27:23;101952.00;;;6.50
23208;BMP180;11773;52.570;13.052;2023-03-03T04:29:53;101953.00;;;6.50
23208;BMP180;11773;52.570;13.052;2023-03-03T04:32:22;101950.00;;;6.50
23208;BMP180;11773;52.570;13.052;2023-03-03T04:34:53;101950.00;;;6.50
23208;BMP180;11773;52.570;13.052;2023-03-03T04:37:24;101945.00;;;6.50
23208;BMP180;11773;52.570;13.052;2023-03-03T04:39:53;101947.00;;;6.50
23208;BMP180;11773;52.570;13.052;2023-03-03T04:42:23;101956.00;;;6.50
23208;BMP180;11773;52.570;13.052;2023-03-03T04:44:52;101948.00;;;6.50
23208;BMP180;11773;52.570;13.052;2023-03-03T04:47:22;101958.00;;;6.50
23208;BMP180;11773;52.570;13.052;2023-03-03T04:49:51;101963.00;;;6.50
23208;BMP180;11773;52.570;13.052;2023-03-03T04:52:21;101966.00;;;6.50
23208;BMP180;11773;52.570;13.052;2023-03-03T04:54:50;101985.00;;;6.50
23208;BMP180;11773;52.570;13.052;2023-03-03T04:57:20;101960.00;;;6.50
23208;BMP180;11773;52.570;13.052;2023-03-03T04:59:50;101951.00;;;6.40
23208;BMP180;11773;52.570;13.052;2023-03-03T05:02:19;101944.00;;;6.50
23208;BMP180;11773;52.570;13.052;2023-03-03T05:04:49;101948.00;;;6.40
23208;BMP180;11773;52.570;13.052;2023-03-03T05:07:18;101958.00;;;6.40
23208;BMP180;11773;52.570;13.052;2023-03-03T05:09:48;101939.00;;;6.40
23208;BMP180;11773;52.570;13.052;2023-03-03T05:12:17;101939.00;;;6.40
23208;BMP180;11773;52.570;13.052;2023-03-03T05:14:47;101940.00;;;6.50
23208;BMP180;11773;52.570;13.052;2023-03-03T05:17:17;101936.00;;;6.40
23208;BMP180;11773;52.570;13.052;2023-03-03T05:19:46;101940.00;;;6.50
23208;BMP180;11773;52.570;13.052;2023-03-03T05:22:15;101931.00;;;6.50
23208;BMP180;11773;52.570;13.052;2023-03-03T05:24:45;101935.00;;;6.40
23208;BMP180;11773;52.570;13.052;2023-03-03T05:27:16;101937.00;;;6.40
23208;BMP180;11773;52.570;13.052;2023-03-03T05:29:46;101959.00;;;6.50
23208;BMP180;11773;52.570;13.052;2023-03-03T05:32:15;101956.00;;;6.40
23208;BMP180;11773;52.570;13.052;2023-03-03T05:34:45;101952.00;;;6.40
23208;BMP180;11773;52.570;13.052;2023-03-03T05:37:14;101960.00;;;6.40
23208;BMP180;11773;52.570;13.052;2023-03-03T05:39:44;101963.00;;;6.40
23208;BMP180;11773;52.570;13.052;2023-03-03T05:42:13;101971.00;;;6.40
23208;BMP180;11773;52.570;13.052;2023-03-03T05:44:43;101962.00;;;6.40
23208;BMP180;11773;52.570;13.052;2023-03-03T05:47:13;101971.00;;;6.40
23208;BMP180;11773;52.570;13.052;2023-03-03T05:49:42;101961.00;;;6.40
23208;BMP180;11773;52.570;13.052;2023-03-03T05:52:12;101962.00;;;6.40
23208;BMP180;11773;52.570;13.052;2023-03-03T05:54:42;101962.00;;;6.40
23208;BMP180;11773;52.570;13.052;2023-03-03T05:57:11;101964.00;;;6.40
23208;BMP180;11773;52.570;13.052;2023-03-03T05:59:41;101960.00;;;6.40
23208;BMP180;11773;52.570;13.052;2023-03-03T06:02:10;101973.00;;;6.40
23208;BMP180;11773;52.570;13.052;2023-03-03T06:04:40;101982.00;;;6.40
23208;BMP180;11773;52.570;13.052;2023-03-03T06:07:09;101980.00;;;6.40
23208;BMP180;11773;52.570;13.052;2023-03-03T06:09:39;101979.00;;;6.40
23208;BMP180;11773;52.570;13.052;2023-03-03T06:12:08;101980.00;;;6.40
23208;BMP180;11773;52.570;13.052;2023-03-03T06:14:38;101988.00;;;6.40
23208;BMP180;11773;52.570;13.052;2023-03-03T06:17:07;101979.00;;;6.40
23208;BMP180;11773;52.570;13.052;2023-03-03T06:19:38;101986.00;;;6.40
23208;BMP180;11773;52.570;13.052;2023-03-03T06:22:08;101978.00;;;6.40
23208;BMP180;11773;52.570;13.052;2023-03-03T06:24:38;101988.00;;;6.40
23208;BMP180;11773;52.570;13.052;2023-03-03T06:27:08;101994.00;;;6.40
23208;BMP180;11773;52.570;13.052;2023-03-03T06:29:38;101988.00;;;6.40
23208;BMP180;11773;52.570;13.052;2023-03-03T06:32:08;101989.00;;;6.40
23208;BMP180;11773;52.570;13.052;2023-03-03T06:34:37;101986.00;;;6.40
23208;BMP180;11773;52.570;13.052;2023-03-03T06:37:07;101986.00;;;6.40
23208;BMP180;11773;52.570;13.052;2023-03-03T06:39:36;101987.00;;;6.50
23208;BMP180;11773;52.570;13.052;2023-03-03T06:42:06;101998.00;;;6.50
23208;BMP180;11773;52.570;13.052;2023-03-03T06:44:36;102001.00;;;6.50
23208;BMP180;11773;52.570;13.052;2023-03-03T06:47:06;102002.00;;;6.50
23208;BMP180;11773;52.570;13.052;2023-03-03T06:49:35;101993.00;;;6.50
23208;BMP180;11773;52.570;13.052;2023-03-03T06:52:26;101992.00;;;6.50
23208;BMP180;11773;52.570;13.052;2023-03-03T06:54:59;101991.00;;;6.50
23208;BMP180;11773;52.570;13.052;2023-03-03T06:57:32;102008.00;;;6.50
23208;BMP180;11773;52.570;13.052;2023-03-03T07:00:24;101999.00;;;6.50
23208;BMP180;11773;52.570;13.052;2023-03-03T07:03:17;102013.00;;;6.40
23208;BMP180;11773;52.570;13.052;2023-03-03T07:05:47;102020.00;;;6.40
23208;BMP180;11773;52.570;13.052;2023-03-03T07:08:21;102026.00;;;6.50
23208;BMP180;11773;52.570;13.052;2023-03-03T07:10:52;102030.00;;;6.50
23208;BMP180;11773;52.570;13.052;2023-03-03T07:13:26;102027.00;;;6.50
23208;BMP180;11773;52.570;13.052;2023-03-03T07:16:00;102040.00;;;6.50
23208;BMP180;11773;52.570;13.052;2023-03-03T07:18:56;102031.00;;;6.50
23208;BMP180;11773;52.570;13.052;2023-03-03T07:21:34;102038.00;;;6.50
23208;BMP180;11773;52.570;13.052;2023-03-03T07:24:25;102038.00;;;6.40
23208;BMP180;11773;52.570;13.052;2023-03-03T07:29:33;102036.00;;;6.40
23208;BMP180;11773;52.570;13.052;2023-03-03T07:32:12;102024.00;;;6.50
23208;BMP180;11773;52.570;13.052;2023-03-03T07:34:43;102028.00;;;6.50
23208;BMP180;11773;52.570;13.052;2023-03-03T07:37:36;102035.00;;;6.50
23208;BMP180;11773;52.570;13.052;2023-03-03T07:40:35;102041.00;;;6.50
23208;BMP180;11773;52.570;13.052;2023-03-03T07:43:39;102039.00;;;6.50
23208;BMP180;11773;52.570;13.052;2023-03-03T07:46:28;102053.00;;;6.40
23208;BMP180;11773;52.570;13.052;2023-03-03T07:48:58;102054.00;;;6.40
23208;BMP180;11773;52.570;13.052;2023-03-03T07:51:36;102063.00;;;6.50
23208;BMP180;11773;52.570;13.052;2023-03-03T07:54:16;102058.00;;;6.50
23208;BMP180;11773;52.570;13.052;2023-03-03T07:56:45;102053.00;;;6.50
23208;BMP180;11773;52.570;13.052;2023-03-03T07:59:22;102065.00;;;6.50
23208;BMP180;11773;52.570;13.052;2023-03-03T08:01:55;102059.00;;;6.50
23208;BMP180;11773;52.570;13.052;2023-03-03T08:04:42;102048.00;;;6.50
23208;BMP180;11773;52.570;13.052;2023-03-03T08:07:19;102056.00;;;6.50
23208;BMP180;11773;52.570;13.052;2023-03-03T08:10:01;102069.00;;;6.50
23208;BMP180;11773;52.570;13.052;2023-03-03T08:12:42;102078.00;;;6.60
23208;BMP180;11773;52.570;13.052;2023-03-03T08:15:20;102047.00;;;6.60
23208;BMP180;11773;52.570;13.052;2023-03-03T08:17:53;102045.00;;;6.60
23208;BMP180;11773;52.570;13.052;2023-03-03T08:20:48;102045.00;;;6.60
23208;BMP180;11773;52.570;13.052;2023-03-03T08:23:17;102057.00;;;6.60
23208;BMP180;11773;52.570;13.052;2023-03-03T08:25:49;102059.00;;;6.70
23208;BMP180;11773;52.570;13.052;2023-03-03T08:28:20;102047.00;;;6.70
23208;BMP180;11773;52.570;13.052;2023-03-03T08:30:50;102049.00;;;6.70
23208;BMP180;11773;52.570;13.052;2023-03-03T08:33:22;102045.00;;;6.80
23208;BMP180;11773;52.570;13.052;2023-03-03T08:35:51;102058.00;;;6.80
23208;BMP180;11773;52.570;13.052;2023-03-03T08:38:21;102050.00;;;6.80
23208;BMP180;11773;52.570;13.052;2023-03-03T08:40:51;102051.00;;;6.80
23208;BMP180;11773;52.570;13.052;2023-03-03T08:43:20;102060.00;;;6.90
23208;BMP180;11773;52.570;13.052;2023-03-03T08:45:53;102056.00;;;6.90
23208;BMP180;11773;52.570;13.052;2023-03-03T08:48:24;102066.00;;;6.90
23208;BMP180;11773;52.570;13.052;2023-03-03T08:50:54;102047.00;;;6.90
23208;BMP180;11773;52.570;13.052;2023-03-03T08:53:24;102054.00;;;6.90
23208;BMP180;11773;52.570;13.052;2023-03-03T08:55:55;102061.00;;;6.90
23208;BMP180;11773;52.570;13.052;2023-03-03T08:58:24;102058.00;;;7.00
23208;BMP180;11773;52.570;13.052;2023-03-03T09:00:55;102052.00;;;7.00
23208;BMP180;11773;52.570;13.052;2023-03-03T09:03:26;102042.00;;;7.00
23208;BMP180;11773;52.570;13.052;2023-03-03T09:05:55;102045.00;;;7.00
23208;BMP180;11773;52.570;13.052;2023-03-03T09:08:25;102044.00;;;7.10
23208;BMP180;11773;52.570;13.052;2023-03-03T09:10:54;102061.00;;;7.10
23208;BMP180;11773;52.570;13.052;2023-03-03T09:13:24;102049.00;;;7.10
23208;BMP180;11773;52.570;13.052;2023-03-03T09:15:53;102064.00;;;7.10
23208;BMP180;11773;52.570;13.052;2023-03-03T09:18:36;102049.00;;;7.10
23208;BMP180;11773;52.570;13.052;2023-03-03T09:21:24;102051.00;;;7.10
23208;BMP180;11773;52.570;13.052;2023-03-03T09:23:55;102044.00;;;7.10
23208;BMP180;11773;52.570;13.052;2023-03-03T09:26:38;102053.00;;;7.10
23208;BMP180;11773;52.570;13.052;2023-03-03T09:29:31;102045.00;;;7.20
23208;BMP180;11773;52.570;13.052;2023-03-03T09:32:19;102039.00;;;7.10
23208;BMP180;11773;52.570;13.052;2023-03-03T09:34:44;102048.00;;;7.10
23208;BMP180;11773;52.570;13.052;2023-03-03T09:37:23;102048.00;;;7.20
23208;BMP180;11773;52.570;13.052;2023-03-03T09:39:55;102055.00;;;7.20
23208;BMP180;11773;52.570;13.052;2023-03-03T09:42:40;102059.00;;;7.20
23208;BMP180;11773;52.570;13.052;2023-03-03T09:45:33;102038.00;;;7.20
23208;BMP180;11773;52.570;13.052;2023-03-03T09:51:39;102049.00;;;7.30
23208;BMP180;11773;52.570;13.052;2023-03-03T09:54:35;102048.00;;;7.20
23208;BMP180;11773;52.570;13.052;2023-03-03T09:57:23;102040.00;;;7.20
23208;BMP180;11773;52.570;13.052;2023-03-03T10:00:19;102062.00;;;7.20
23208;BMP180;11773;52.570;13.052;2023-03-03T10:05:45;102045.00;;;7.30
23208;BMP180;11773;52.570;13.052;2023-03-03T10:09:27;102048.00;;;7.30
23208;BMP180;11773;52.570;13.052;2023-03-03T10:11:37;102051.00;;;7.30
23208;BMP180;11773;52.570;13.052;2023-03-03T10:14:35;102068.00;;;7.30
23208;BMP180;11773;52.570;13.052;2023-03-03T10:17:15;102058.00;;;7.40
23208;BMP180;11773;52.570;13.052;2023-03-03T10:19:54;102049.00;;;7.40
23208;BMP180;11773;52.570;13.052;2023-03-03T10:22:40;102050.00;;;7.50
23208;BMP180;11773;52.570;13.052;2023-03-03T10:25:39;102046.00;;;7.50
23208;BMP180;11773;52.570;13.052;2023-03-03T10:28:44;102048.00;;;7.50
23208;BMP180;11773;52.570;13.052;2023-03-03T10:31:34;102057.00;;;7.60
23208;BMP180;11773;52.570;13.052;2023-03-03T10:34:21;102044.00;;;7.60
23208;BMP180;11773;52.570;13.052;2023-03-03T10:40:03;102066.00;;;7.60
23208;BMP180;11773;52.570;13.052;2023-03-03T10:42:59;102045.00;;;7.70
23208;BMP180;11773;52.570;13.052;2023-03-03T10:45:53;102046.00;;;7.70
23208;BMP180;11773;52.570;13.052;2023-03-03T10:48:51;102042.00;;;7.70
23208;BMP180;11773;52.570;13.052;2023-03-03T10:51:33;102054.00;;;7.70
23208;BMP180;11773;52.570;13.052;2023-03-03T10:54:23;102069.00;;;7.70
23208;BMP180;11773;52.570;13.052;2023-03-03T11:02:40;102072.00;;;7.80
23208;BMP180;11773;52.570;13.052;2023-03-03T11:08:55;102072.00;;;7.90
23208;BMP180;11773;52.570;13.052;2023-03-03T11:11:35;102055.00;;;7.90
23208;BMP180;11773;52.570;13.052;2023-03-03T11:17:45;102048.00;;;7.90
23208;BMP180;11773;52.570;13.052;2023-03-03T11:23:05;102057.00;;;8.00
23208;BMP180;11773;52.570;13.052;2023-03-03T11:25:33;102044.00;;;8.00
23208;BMP180;11773;52.570;13.052;2023-03-03T11:28:13;102048.00;;;8.10
23208;BMP180;11773;52.570;13.052;2023-03-03T11:31:08;102036.00;;;8.10
23208;BMP180;11773;52.570;13.052;2023-03-03T11:33:55;102039.00;;;8.10
23208;BMP180;11773;52.570;13.052;2023-03-03T11:36:42;102047.00;;;8.20
23208;BMP180;11773;52.570;13.052;2023-03-03T11:39:21;102040.00;;;8.20
23208;BMP180;11773;52.570;13.052;2023-03-03T11:42:23;102031.00;;;8.20
23208;BMP180;11773;52.570;13.052;2023-03-03T11:45:02;102040.00;;;8.20
23208;BMP180;11773;52.570;13.052;2023-03-03T11:47:57;102029.00;;;8.20
23208;BMP180;11773;52.570;13.052;2023-03-03T11:50:34;102037.00;;;8.20
23208;BMP180;11773;52.570;13.052;2023-03-03T11:55:44;102034.00;;;8.30
23208;BMP180;11773;52.570;13.052;2023-03-03T11:58:33;102026.00;;;8.40
23208;BMP180;11773;52.570;13.052;2023-03-03T12:04:08;102024.00;;;8.40
23208;BMP180;11773;52.570;13.052;2023-03-03T12:07:02;102019.00;;;8.40
23208;BMP180;11773;52.570;13.052;2023-03-03T12:09:38;102016.00;;;8.50
23208;BMP180;11773;52.570;13.052;2023-03-03T12:12:30;102015.00;;;8.50
23208;BMP180;11773;52.570;13.052;2023-03-03T12:17:55;102004.00;;;8.60
23208;BMP180;11773;52.570;13.052;2023-03-03T12:20:44;102003.00;;;8.60
23208;BMP180;11773;52.570;13.052;2023-03-03T12:29:33;101977.00;;;8.60
23208;BMP180;11773;52.570;13.052;2023-03-03T12:32:43;101988.00;;;8.60
23208;BMP180;11773;52.570;13.052;2023-03-03T12:37:45;101988.00;;;8.70
23208;BMP180;11773;52.570;13.052;2023-03-03T12:40:29;101983.00;;;8.80
23208;BMP180;11773;52.570;13.052;2023-03-03T12:46:44;101977.00;;;8.80
23208;BMP180;11773;52.570;13.052;2023-03-03T12:49:14;101981.00;;;8.80
23208;BMP180;11773;52.570;13.052;2023-03-03T12:52:06;102001.00;;;8.90
23208;BMP180;11773;52.570;13.052;2023-03-03T12:55:05;101968.00;;;8.90
23208;BMP180;11773;52.570;13.052;2023-03-03T12:57:42;101972.00;;;8.90
23208;BMP180;11773;52.570;13.052;2023-03-03T13:03:37;101966.00;;;9.00
23208;BMP180;11773;52.570;13.052;2023-03-03T13:06:29;101968.00;;;9.00
23208;BMP180;11773;52.570;13.052;2023-03-03T13:12:54;101956.00;;;9.00
23208;BMP180;11773;52.570;13.052;2023-03-03T13:15:22;101965.00;;;9.00
23208;BMP180;11773;52.570;13.052;2023-03-03T13:18:24;101943.00;;;9.00
23208;BMP180;11773;52.570;13.052;2023-03-03T13:21:00;101950.00;;;9.00
23208;BMP180;11773;52.570;13.052;2023-03-03T13:26:42;101946.00;;;9.10
23208;BMP180;11773;52.570;13.052;2023-03-03T13:29:37;101947.00;;;9.10
23208;BMP180;11773;52.570;13.052;2023-03-03T13:32:22;101954.00;;;9.10
23208;BMP180;11773;52.570;13.052;2023-03-03T13:35:08;101948.00;;;9.20
23208;BMP180;11773;52.570;13.052;2023-03-03T13:37:52;101938.00;;;9.20
23208;BMP180;11773;52.570;13.052;2023-03-03T13:40:42;101935.00;;;9.20
23208;BMP180;11773;52.570;13.052;2023-03-03T13:43:22;101936.00;;;9.20
23208;BMP180;11773;52.570;13.052;2023-03-03T13:46:12;101935.00;;;9.20
23208;BMP180;11773;52.570;13.052;2023-03-03T13:49:00;101942.00;;;9.30
23208;BMP180;11773;52.570;13.052;2023-03-03T13:54:47;101926.00;;;9.30
23208;BMP180;11773;52.570;13.052;2023-03-03T13:57:49;101909.00;;;9.30
23208;BMP180;11773;52.570;13.052;2023-03-03T14:00:30;101907.00;;;9.30
23208;BMP180;11773;52.570;13.052;2023-03-03T14:03:33;101910.00;;;9.30
23208;BMP180;11773;52.570;13.052;2023-03-03T14:06:13;101902.00;;;9.30
23208;BMP180;11773;52.570;13.052;2023-03-03T14:09:03;101901.00;;;9.40
23208;BMP180;11773;52.570;13.052;2023-03-03T14:11:42;101905.00;;;9.50
23208;BMP180;11773;52.570;13.052;2023-03-03T14:14:46;101889.00;;;9.50
23208;BMP180;11773;52.570;13.052;2023-03-03T14:17:36;101894.00;;;9.50
23208;BMP180;11773;52.570;13.052;2023-03-03T14:20:32;101889.00;;;9.60
23208;BMP180;11773;52.570;13.052;2023-03-03T14:26:08;101886.00;;;9.60
23208;BMP180;11773;52.570;13.052;2023-03-03T14:28:47;101878.00;;;9.70
23208;BMP180;11773;52.570;13.052;2023-03-03T14:31:40;101882.00;;;9.70
23208;BMP180;11773;52.570;13.052;2023-03-03T14:34:28;101881.00;;;9.80
23208;BMP180;11773;52.570;13.052;2023-03-03T14:37:18;101886.00;;;9.80
23208;BMP180;11773;52.570;13.052;2023-03-03T14:39:44;101871.00;;;9.90
23208;BMP180;11773;52.570;13.052;2023-03-03T14:45:45;101871.00;;;9.90
23208;BMP180;11773;52.570;13.052;2023-03-03T14:47:56;101857.00;;;10.00
23208;BMP180;11773;52.570;13.052;2023-03-03T14:50:35;101876.00;;;10.00
23208;BMP180;11773;52.570;13.052;2023-03-03T14:53:15;101857.00;;;10.10
23208;BMP180;11773;52.570;13.052;2023-03-03T14:55:51;101845.00;;;10.10
23208;BMP180;11773;52.570;13.052;2023-03-03T14:58:40;101841.00;;;10.10
23208;BMP180;11773;52.570;13.052;2023-03-03T15:01:21;101846.00;;;10.20
23208;BMP180;11773;52.570;13.052;2023-03-03T15:04:00;101844.00;;;10.20
23208;BMP180;11773;52.570;13.052;2023-03-03T15:06:45;101843.00;;;10.20
23208;BMP180;11773;52.570;13.052;2023-03-03T15:09:39;101848.00;;;10.30
23208;BMP180;11773;52.570;13.052;2023-03-03T15:12:33;101841.00;;;10.30
23208;BMP180;11773;52.570;13.052;2023-03-03T15:17:56;101828.00;;;10.40
23208;BMP180;11773;52.570;13.052;2023-03-03T15:20:44;101821.00;;;10.40
23208;BMP180;11773;52.570;13.052;2023-03-03T15:26:51;101833.00;;;10.40
23208;BMP180;11773;52.570;13.052;2023-03-03T15:29:49;101830.00;;;10.40
23208;BMP180;11773;52.570;13.052;2023-03-03T15:32:57;101825.00;;;10.40
23208;BMP180;11773;52.570;13.052;2023-03-03T15:35:49;101819.00;;;10.40
23208;BMP180;11773;52.570;13.052;2023-03-03T15:38:31;101813.00;;;10.50
23208;BMP180;11773;52.570;13.052;2023-03-03T15:44:20;101818.00;;;10.50
23208;BMP180;11773;52.570;13.052;2023-03-03T15:53:04;101801.00;;;10.50
23208;BMP180;11773;52.570;13.052;2023-03-03T15:55:56;101803.00;;;10.60
23208;BMP180;11773;52.570;13.052;2023-03-03T15:59:08;101800.00;;;10.60
23208;BMP180;11773;52.570;13.052;2023-03-03T16:04:38;101804.00;;;10.70
23208;BMP180;11773;52.570;13.052;2023-03-03T16:10:53;101805.00;;;10.70
23208;BMP180;11773;52.570;13.052;2023-03-03T16:13:37;101794.00;;;10.70
23208;BMP180;11773;52.570;13.052;2023-03-03T16:16:19;101791.00;;;10.70
23208;BMP180;11773;52.570;13.052;2023-03-03T16:20:00;101804.00;;;10.70
23208;BMP180;11773;52.570;13.052;2023-03-03T16:21:59;101800.00;;;10.80
23208;BMP180;11773;52.570;13.052;2023-03-03T16:25:02;101804.00;;;10.80
23208;BMP180;11773;52.570;13.052;2023-03-03T16:27:42;101791.00;;;10.80
23208;BMP180;11773;52.570;13.052;2023-03-03T16:30:48;101792.00;;;10.80
23208;BMP180;11773;52.570;13.052;2023-03-03T16:33:35;101789.00;;;10.80
23208;BMP180;11773;52.570;13.052;2023-03-03T16:39:39;101787.00;;;10.80